PWSweather.com
Personal Weather Stations
Station Observations
IBRABANT12
Leuven, BlandenBE 3052

LeuvenBlandenBE 3052

Lat: 50.8252218, Lon: 4.709682799999996

Elevation: 193

Station Type: Davis Vantage Vue

http://www.weerstationblanden.be

Latest ConditionsUpdated 4:30:16 AM GMT+01:01 Thursday, Jul 2, 2015
Currently Today's Max Today's Min Today's Average
Temperature 69.6°F20.9°C 78.7°F25.9°C 69.6°F20.9°C 74.7°F23.7°C
Dew Point 63.9°F17.7°C 65.1°F18.4°C 63.7°F17.6°C 64.3°F17.9°C
Winds Calm Calm 1.9 mph W3.1 kmh W - 0.6 mph 1.0 kmh
Wind Gusts -- 2.0 mph3.2 kmh - -
Humidity 82% 82% 63% 71%
Pressure 29.95 in1014.2 mb 29.95 in1014.2 mb 29.92 in1013.2 mb -
Hour Temp Dew Point Humidity Winds Wind Gusts Pressure Precip Precip Rate Daily Precip Total
04:30 AM 69.6°F20.9°C 63.9°F17.7°C 82% Calm Calm -- 29.95 in1014.2 mb - 0.00 in0.0 mm 0.00 in0.0 mm
04:20 AM 69.8°F21.0°C 63.7°F17.6°C 81% Calm Calm -- 29.95 in1014.2 mb - 0.00 in0.0 mm 0.00 in0.0 mm
04:10 AM 70.3°F21.3°C 63.8°F17.7°C 80% 0.7 mph E1.1 kmh E 2.0 mph3.2 kmh 29.95 in1014.2 mb - 0.00 in0.0 mm 0.00 in0.0 mm
04:00 AM 70.8°F21.6°C 63.9°F17.7°C 79% 1.1 mph E1.8 kmh E 2.0 mph3.2 kmh 29.94 in1013.9 mb - 0.00 in0.0 mm 0.00 in0.0 mm
03:50 AM 70.3°F21.3°C 64.2°F17.9°C 81% 1.9 mph W3.1 kmh W 2.0 mph3.2 kmh 29.94 in1013.9 mb - 0.00 in0.0 mm 0.00 in0.0 mm
03:40 AM 70.3°F21.3°C 63.8°F17.7°C 80% 0.1 mph W0.2 kmh W 1.0 mph1.6 kmh 29.94 in1013.9 mb - 0.00 in0.0 mm 0.00 in0.0 mm
03:30 AM 71.1°F21.7°C 63.9°F17.7°C 78% Calm Calm -- 29.93 in1013.5 mb - 0.00 in0.0 mm 0.00 in0.0 mm
03:20 AM 71.5°F21.9°C 63.9°F17.7°C 77% Calm Calm -- 29.93 in1013.5 mb - 0.00 in0.0 mm 0.00 in0.0 mm
03:10 AM 72.8°F22.7°C 64.0°F17.8°C 74% 0.9 mph NW1.4 kmh NW 1.0 mph1.6 kmh 29.92 in1013.2 mb - 0.00 in0.0 mm 0.00 in0.0 mm
03:00 AM 73.4°F23.0°C 64.2°F17.9°C 73% 0.8 mph NW1.3 kmh NW 1.0 mph1.6 kmh 29.93 in1013.5 mb - 0.00 in0.0 mm 0.00 in0.0 mm
02:50 AM 74.4°F23.6°C 63.9°F17.7°C 70% Calm Calm -- 29.92 in1013.2 mb - 0.00 in0.0 mm 0.00 in0.0 mm
02:40 AM 75.1°F23.9°C 64.2°F17.9°C 69% 0.8 mph ESE1.3 kmh ESE 1.0 mph1.6 kmh 29.92 in1013.2 mb - 0.00 in0.0 mm 0.00 in0.0 mm
02:30 AM 75.4°F24.1°C 64.1°F17.8°C 68% 0.1 mph SE0.2 kmh SE 2.0 mph3.2 kmh 29.92 in1013.2 mb - 0.00 in0.0 mm 0.00 in0.0 mm
02:20 AM 75.8°F24.3°C 64.1°F17.8°C 67% 0.2 mph ESE0.3 kmh ESE 1.0 mph1.6 kmh 29.92 in1013.2 mb - 0.00 in0.0 mm 0.00 in0.0 mm
02:10 AM 75.9°F24.4°C 64.2°F17.9°C 67% 0.3 mph SE0.5 kmh SE 2.0 mph3.2 kmh 29.92 in1013.2 mb - 0.00 in0.0 mm 0.00 in0.0 mm
02:00 AM 76.1°F24.5°C 64.3°F17.9°C 67% 0.8 mph SE1.3 kmh SE 1.0 mph1.6 kmh 29.92 in1013.2 mb - 0.00 in0.0 mm 0.00 in0.0 mm
01:50 AM 76.3°F24.6°C 64.5°F18.1°C 67% 1.2 mph SE1.9 kmh SE 2.0 mph3.2 kmh 29.92 in1013.2 mb - 0.00 in0.0 mm 0.00 in0.0 mm
01:40 AM 76.4°F24.7°C 64.6°F18.1°C 67% 1.4 mph E2.3 kmh E 2.0 mph3.2 kmh 29.92 in1013.2 mb - 0.00 in0.0 mm 0.00 in0.0 mm
01:30 AM 76.7°F24.8°C 64.5°F18.1°C 66% 0.1 mph SSE0.2 kmh SSE 1.0 mph1.6 kmh 29.92 in1013.2 mb - 0.00 in0.0 mm 0.00 in0.0 mm
01:20 AM 76.9°F24.9°C 64.2°F17.9°C 65% 0.3 mph ESE0.5 kmh ESE 1.0 mph1.6 kmh 29.92 in1013.2 mb - 0.00 in0.0 mm 0.00 in0.0 mm
01:10 AM 77.0°F25.0°C 64.3°F17.9°C 65% 1.0 mph E1.6 kmh E 2.0 mph3.2 kmh 29.92 in1013.2 mb - 0.00 in0.0 mm 0.00 in0.0 mm
01:00 AM 77.2°F25.1°C 64.5°F18.1°C 65% 0.7 mph SSE1.1 kmh SSE 1.0 mph1.6 kmh 29.92 in1013.2 mb - 0.00 in0.0 mm 0.00 in0.0 mm
12:50 AM 77.5°F25.3°C 64.8°F18.2°C 65% 1.0 mph SSE1.6 kmh SSE 2.0 mph3.2 kmh 29.92 in1013.2 mb - 0.00 in0.0 mm 0.00 in0.0 mm
12:40 AM 77.5°F25.3°C 64.8°F18.2°C 65% 0.8 mph SE1.3 kmh SE 2.0 mph3.2 kmh 29.92 in1013.2 mb - 0.00 in0.0 mm 0.00 in0.0 mm
12:30 AM 77.4°F25.2°C 65.1°F18.4°C 66% 0.9 mph ESE1.4 kmh ESE 2.0 mph3.2 kmh 29.92 in1013.2 mb - 0.00 in0.0 mm 0.00 in0.0 mm
12:20 AM 77.7°F25.4°C 65.0°F18.3°C 65% 0.4 mph SE0.6 kmh SE 1.0 mph1.6 kmh 29.92 in1013.2 mb - 0.00 in0.0 mm 0.00 in0.0 mm
12:10 AM 78.3°F25.7°C 65.1°F18.4°C 64% 0.9 mph SE1.4 kmh SE 1.0 mph1.6 kmh 29.92 in1013.2 mb - 0.00 in0.0 mm 0.00 in0.0 mm
12:00 AM 78.7°F25.9°C 65.1°F18.4°C 63% 1.1 mph E1.8 kmh E 2.0 mph3.2 kmh 29.92 in1013.2 mb - 0.00 in0.0 mm 0.00 in0.0 mm